createdAt,value
2019-05-16T00:02:01.375Z,4.30
2019-05-16T00:04:30.384Z,4.30
2019-05-16T00:07:00.835Z,3.80
2019-05-16T00:09:31.235Z,3.90
2019-05-16T00:12:01.638Z,3.80
2019-05-16T00:14:32.116Z,3.90
2019-05-16T00:17:02.482Z,3.98
2019-05-16T00:19:32.900Z,3.95
2019-05-16T00:22:03.289Z,3.80
2019-05-16T00:24:33.669Z,4.35
2019-05-16T00:27:04.064Z,4.33
2019-05-16T00:29:34.428Z,4.87
2019-05-16T00:32:04.857Z,3.80
2019-05-16T00:34:35.225Z,4.72
2019-05-16T00:37:05.628Z,4.85
2019-05-16T00:39:36.132Z,4.30
2019-05-16T00:42:08.592Z,5.10
2019-05-16T00:44:38.851Z,5.17
2019-05-16T00:47:09.235Z,4.95
2019-05-16T00:49:39.621Z,5.25
2019-05-16T00:52:10.108Z,4.95
2019-05-16T00:54:40.507Z,5.45
2019-05-16T00:57:11.514Z,5.17
2019-05-16T00:59:42.423Z,4.37
2019-05-16T01:02:12.784Z,3.80
2019-05-16T01:04:44.639Z,3.45
2019-05-16T01:07:15.256Z,4.10
2019-05-16T01:09:45.668Z,3.02
2019-05-16T01:12:17.879Z,3.80
2019-05-16T01:14:48.285Z,3.50
2019-05-16T01:17:18.647Z,3.67
2019-05-16T01:19:49.042Z,4.00
2019-05-16T01:22:20.903Z,3.67
2019-05-16T01:24:51.352Z,3.98
2019-05-16T01:27:21.717Z,3.87
2019-05-16T01:29:52.128Z,4.35
2019-05-16T01:32:23.395Z,3.90
2019-05-16T01:34:53.874Z,4.30
2019-05-16T01:37:24.241Z,3.58
2019-05-16T01:39:54.631Z,4.50
2019-05-16T01:42:25.160Z,4.00
2019-05-16T01:44:57.704Z,4.37
2019-05-16T01:47:28.784Z,4.00
2019-05-16T01:50:00.102Z,4.10
2019-05-16T01:52:30.613Z,4.05
2019-05-16T01:55:01.042Z,3.85
2019-05-16T01:57:31.458Z,3.62
2019-05-16T02:00:01.891Z,3.55
2019-05-16T02:02:32.372Z,3.55
2019-05-16T02:05:02.798Z,3.33
2019-05-16T02:07:33.201Z,3.10
2019-05-16T02:10:04.579Z,3.25
2019-05-16T02:12:34.972Z,2.87
2019-05-16T02:15:08.084Z,2.45
2019-05-16T02:17:38.729Z,1.98
2019-05-16T02:20:09.355Z,2.10
2019-05-16T02:22:39.836Z,2.27
2019-05-16T02:25:10.622Z,2.12
2019-05-16T02:27:41.245Z,1.90
2019-05-16T02:30:12.774Z,1.95
2019-05-16T02:32:43.344Z,1.80
2019-05-16T02:35:13.875Z,2.55
2019-05-16T02:37:44.266Z,2.10
2019-05-16T02:40:20.816Z,2.08
2019-05-16T02:42:51.511Z,2.02
2019-05-16T02:45:24.554Z,1.90
2019-05-16T02:47:54.264Z,1.92
2019-05-16T02:50:24.808Z,1.72
2019-05-16T02:52:55.300Z,1.70
2019-05-16T02:55:25.703Z,1.40
2019-05-16T02:57:56.162Z,1.70
2019-05-16T03:00:36.962Z,1.62
2019-05-16T03:03:07.451Z,1.50
2019-05-16T03:05:38.015Z,1.65
2019-05-16T03:08:11.754Z,1.77
2019-05-16T03:10:41.451Z,1.90
2019-05-16T03:13:12.007Z,2.12
2019-05-16T03:15:45.087Z,1.32
2019-05-16T03:18:17.566Z,1.40
2019-05-16T03:20:51.200Z,1.87
2019-05-16T03:23:21.959Z,1.47
2019-05-16T03:25:52.401Z,2.10
2019-05-16T03:28:22.876Z,1.70
2019-05-16T03:30:55.178Z,1.70
2019-05-16T03:33:32.675Z,1.62
2019-05-16T03:35:57.789Z,1.80
2019-05-16T03:38:30.601Z,1.50
2019-05-16T03:41:01.104Z,1.70
2019-05-16T03:43:31.636Z,1.70
2019-05-16T03:46:02.747Z,1.60
2019-05-16T03:48:33.290Z,1.62
2019-05-16T03:51:04.493Z,1.40
2019-05-16T03:53:34.931Z,1.70
2019-05-16T03:56:05.286Z,1.90
2019-05-16T03:58:35.685Z,2.00
2019-05-16T04:01:06.109Z,1.70
2019-05-16T04:03:40.958Z,1.67
2019-05-16T04:06:11.860Z,1.85
2019-05-16T04:08:42.170Z,1.60
2019-05-16T04:11:16.225Z,1.95
2019-05-16T04:13:46.201Z,1.80
2019-05-16T04:16:16.584Z,2.00
2019-05-16T04:18:46.985Z,2.00
2019-05-16T04:21:21.811Z,1.90
2019-05-16T04:23:50.986Z,1.98
2019-05-16T04:26:21.988Z,2.35
2019-05-16T04:28:52.448Z,2.20
2019-05-16T04:31:22.858Z,2.17
2019-05-16T04:33:53.337Z,2.35
2019-05-16T04:36:25.367Z,1.95
2019-05-16T04:38:55.735Z,1.92
2019-05-16T04:41:26.108Z,1.95
2019-05-16T04:44:00.551Z,2.20
2019-05-16T04:46:31.261Z,1.92
2019-05-16T04:49:01.687Z,2.22
2019-05-16T04:51:32.391Z,2.15
2019-05-16T04:54:07.136Z,1.75
2019-05-16T04:56:36.426Z,1.40
2019-05-16T04:59:06.901Z,1.62
2019-05-16T05:01:37.366Z,1.80
2019-05-16T05:04:11.768Z,1.60
2019-05-16T05:06:42.214Z,1.62
2019-05-16T05:09:12.644Z,2.47
2019-05-16T05:11:43.010Z,2.30
2019-05-16T05:14:13.428Z,1.90
2019-05-16T05:16:43.802Z,1.67
2019-05-16T05:19:14.204Z,1.40
2019-05-16T05:21:44.563Z,3.87
2019-05-16T05:24:14.960Z,1.90
2019-05-16T05:26:45.344Z,1.70
2019-05-16T05:29:15.769Z,1.92
2019-05-16T05:31:46.211Z,2.00
2019-05-16T05:34:16.643Z,1.77
2019-05-16T05:36:51.021Z,2.00
2019-05-16T05:39:20.924Z,1.90
2019-05-16T05:41:51.368Z,1.60
2019-05-16T05:44:21.770Z,1.90
2019-05-16T05:46:52.161Z,1.70
2019-05-16T05:49:25.516Z,2.10
2019-05-16T05:51:55.941Z,2.30
2019-05-16T05:54:27.149Z,2.27
2019-05-16T05:56:57.544Z,2.15
2019-05-16T05:59:30.424Z,2.10
2019-05-16T06:02:00.894Z,1.90
2019-05-16T06:04:33.022Z,2.17
2019-05-16T06:07:03.459Z,1.90
2019-05-16T06:09:35.319Z,1.80
2019-05-16T06:12:07.518Z,1.90
2019-05-16T06:14:37.839Z,1.52
2019-05-16T06:17:11.262Z,2.10
2019-05-16T06:19:40.348Z,1.95
2019-05-16T06:22:10.833Z,1.60
2019-05-16T06:24:41.204Z,1.37
2019-05-16T06:27:11.594Z,1.55
2019-05-16T06:29:42.408Z,1.45
2019-05-16T06:32:12.768Z,1.50
2019-05-16T06:34:43.152Z,1.70
2019-05-16T06:37:13.723Z,1.32
2019-05-16T06:39:45.375Z,1.60
2019-05-16T06:42:16.036Z,1.55
2019-05-16T06:44:46.440Z,1.40
2019-05-16T06:47:20.692Z,1.70
2019-05-16T06:49:50.863Z,1.70
2019-05-16T06:52:21.010Z,1.80
2019-05-16T06:54:53.847Z,1.85
2019-05-16T06:57:23.500Z,1.57
2019-05-16T06:59:53.930Z,1.85
2019-05-16T07:02:29.855Z,1.90
2019-05-16T07:04:56.442Z,1.60
2019-05-16T07:07:27.027Z,1.67
2019-05-16T07:10:03.566Z,1.77
2019-05-16T07:12:33.389Z,2.08
2019-05-16T07:15:02.312Z,2.00
2019-05-16T07:17:32.805Z,1.90
2019-05-16T07:20:03.227Z,2.20
2019-05-16T07:22:33.671Z,2.02
2019-05-16T07:25:06.545Z,2.02
2019-05-16T07:27:37.045Z,1.90
2019-05-16T07:30:10.572Z,2.17
2019-05-16T07:32:40.760Z,1.92
2019-05-16T07:35:11.551Z,2.02
2019-05-16T07:37:41.934Z,2.33
2019-05-16T07:40:20.089Z,2.10
2019-05-16T07:42:44.640Z,2.15
2019-05-16T07:45:15.182Z,1.70
2019-05-16T07:47:45.579Z,2.80
2019-05-16T07:50:19.972Z,1.80
2019-05-16T07:52:51.133Z,2.20
2019-05-16T07:55:21.817Z,2.17
2019-05-16T07:57:52.274Z,1.95
2019-05-16T08:00:45.910Z,2.25
2019-05-16T08:02:54.726Z,2.22
2019-05-16T08:05:25.101Z,2.62
2019-05-16T08:07:55.670Z,2.37
2019-05-16T08:10:38.059Z,2.70
2019-05-16T08:13:03.404Z,2.60
2019-05-16T08:15:30.499Z,2.42
2019-05-16T08:18:03.251Z,2.27
2019-05-16T08:20:33.096Z,2.58
2019-05-16T08:23:03.505Z,2.65
2019-05-16T08:25:33.888Z,2.50
2019-05-16T08:28:04.287Z,2.87
2019-05-16T08:30:36.204Z,2.87
2019-05-16T08:33:13.554Z,3.15
2019-05-16T08:35:41.813Z,2.83
2019-05-16T08:41:04.394Z,2.85
2019-05-16T08:43:21.356Z,2.87
2019-05-16T08:45:51.613Z,2.65
2019-05-16T08:48:23.465Z,2.60
2019-05-16T08:50:54.969Z,2.50
2019-05-16T08:53:25.553Z,2.65
2019-05-16T08:55:55.985Z,3.12
2019-05-16T08:58:26.422Z,2.80
2019-05-16T09:00:56.829Z,2.85
2019-05-16T09:03:27.360Z,2.75
2019-05-16T09:06:02.999Z,2.70
2019-05-16T09:08:31.308Z,3.12
2019-05-16T09:10:34.703Z,2.87
2019-05-16T09:11:15.864Z,3.60
2019-05-16T09:13:36.847Z,2.35
2019-05-16T09:16:07.786Z,2.17
2019-05-16T09:18:41.287Z,2.65
2019-05-16T09:21:10.205Z,3.20
2019-05-16T09:23:40.683Z,2.05
2019-05-16T09:26:15.417Z,1.92
2019-05-16T09:28:47.855Z,2.67
2019-05-16T09:31:17.912Z,2.20
2019-05-16T09:33:48.688Z,1.40
2019-05-16T09:36:19.070Z,1.70
2019-05-16T09:38:49.610Z,1.40
2019-05-16T09:41:20.143Z,2.17
2019-05-16T09:43:50.588Z,1.90
2019-05-16T09:46:21.040Z,1.77
2019-05-16T09:49:11.639Z,1.50
2019-05-16T09:51:23.508Z,1.98
2019-05-16T09:53:56.770Z,1.95
2019-05-16T09:56:27.249Z,1.72
2019-05-16T09:58:57.707Z,1.67
2019-05-16T10:01:28.198Z,1.80
2019-05-16T10:03:58.564Z,1.60
2019-05-16T10:06:30.420Z,1.87
2019-05-16T10:09:00.912Z,1.80
2019-05-16T10:11:32.765Z,1.57
2019-05-16T10:14:07.235Z,1.95
2019-05-16T10:16:37.202Z,1.90
2019-05-16T10:19:07.671Z,1.92
2019-05-16T10:21:38.219Z,1.75
2019-05-16T10:24:08.998Z,1.75
2019-05-16T10:26:39.701Z,1.87
2019-05-16T10:29:11.690Z,2.12
2019-05-16T10:31:49.428Z,2.15
2019-05-16T10:34:17.386Z,2.25
2019-05-16T10:36:48.146Z,2.40
2019-05-16T10:39:18.804Z,2.27
2019-05-16T10:41:49.470Z,2.10
2019-05-16T10:44:20.171Z,2.33
2019-05-16T10:46:50.826Z,2.35
2019-05-16T10:49:36.160Z,2.35
2019-05-16T10:51:53.227Z,2.52
2019-05-16T10:54:23.925Z,1.80
2019-05-16T10:56:57.449Z,1.85
2019-05-16T11:02:01.191Z,2.08
2019-05-16T11:04:52.868Z,2.37
2019-05-16T11:07:08.258Z,2.17
2019-05-16T11:09:39.455Z,2.30
2019-05-16T11:12:10.199Z,2.90
2019-05-16T11:14:40.792Z,2.95
2019-05-16T11:17:12.946Z,2.87
2019-05-16T11:19:46.421Z,3.00
2019-05-16T11:22:18.634Z,3.90
2019-05-16T11:24:50.225Z,3.25
2019-05-16T11:27:22.384Z,3.62
2019-05-16T11:29:53.065Z,4.42
2019-05-16T11:32:26.978Z,5.62
2019-05-16T11:34:57.599Z,6.45
2019-05-16T11:37:28.475Z,6.08
2019-05-16T11:39:59.122Z,6.60
2019-05-16T11:42:33.101Z,5.78
2019-05-16T11:45:09.486Z,7.12
2019-05-16T11:47:39.313Z,5.55
2019-05-16T11:50:12.212Z,5.67
2019-05-16T11:52:42.754Z,5.53
2019-05-16T11:55:13.383Z,6.00
2019-05-16T11:57:47.612Z,4.40
2019-05-16T12:00:18.366Z,5.80
2019-05-16T12:02:50.518Z,5.40
2019-05-16T12:05:21.059Z,4.90
2019-05-16T12:07:51.490Z,5.22
2019-05-16T12:10:22.793Z,5.20
2019-05-16T12:12:53.352Z,4.53
2019-05-16T12:15:23.733Z,4.60
2019-05-16T12:18:03.872Z,4.83
2019-05-16T12:20:27.843Z,5.10
2019-05-16T12:22:58.295Z,5.05
2019-05-16T12:25:30.134Z,4.97
2019-05-16T12:28:03.707Z,4.28
2019-05-16T12:30:34.337Z,6.08
2019-05-16T12:33:07.121Z,4.80
2019-05-16T12:35:40.076Z,5.33
2019-05-16T12:38:11.704Z,4.17
2019-05-16T12:40:42.435Z,4.97
2019-05-16T12:43:12.995Z,4.95
2019-05-16T12:45:43.448Z,4.92
2019-05-16T12:48:19.346Z,5.22
2019-05-16T12:50:48.046Z,5.05
2019-05-16T12:53:18.064Z,5.15
2019-05-16T12:55:48.521Z,11.43
2019-05-16T12:58:25.044Z,5.45
2019-05-16T13:00:57.419Z,5.15
2019-05-16T13:03:23.392Z,5.42
2019-05-16T13:05:53.900Z,5.47
2019-05-16T13:08:26.635Z,6.12
2019-05-16T13:10:57.805Z,7.25
2019-05-16T13:13:28.440Z,6.00
2019-05-16T13:15:58.998Z,6.42
2019-05-16T13:18:29.549Z,6.67
2019-05-16T13:21:00.098Z,7.05
2019-05-16T13:23:30.997Z,7.10
2019-05-16T13:26:01.461Z,7.25
2019-05-16T13:28:33.537Z,7.47
2019-05-16T13:31:03.906Z,7.25
2019-05-16T13:33:36.699Z,7.17
2019-05-16T13:36:07.524Z,8.18
2019-05-16T13:38:38.217Z,8.35
2019-05-16T13:41:08.689Z,8.65
2019-05-16T13:43:39.110Z,9.03
2019-05-16T13:46:09.550Z,8.30
2019-05-16T13:48:40.235Z,8.48
2019-05-16T13:51:15.527Z,8.33
2019-05-16T13:53:43.701Z,9.23
2019-05-16T13:56:17.352Z,8.98
2019-05-16T13:58:48.163Z,11.20
2019-05-16T14:01:21.797Z,12.37
2019-05-16T14:03:50.857Z,13.80
2019-05-16T14:06:21.329Z,10.82
2019-05-16T14:08:52.719Z,10.05
2019-05-16T14:11:23.402Z,8.98
2019-05-16T14:13:56.237Z,9.30
2019-05-16T14:16:27.845Z,7.60
2019-05-16T14:18:58.438Z,7.67
2019-05-16T14:21:29.088Z,8.68
2019-05-16T14:23:59.386Z,8.25
2019-05-16T14:26:29.839Z,7.22
2019-05-16T14:29:00.502Z,8.63
2019-05-16T14:31:30.926Z,9.05
2019-05-16T14:34:01.573Z,10.35
2019-05-16T14:36:32.168Z,8.80
2019-05-16T14:39:03.307Z,8.48
2019-05-16T14:41:33.843Z,8.55
2019-05-16T14:44:04.562Z,7.67
2019-05-16T14:46:37.798Z,8.60
2019-05-16T14:49:07.653Z,7.58
2019-05-16T14:51:38.837Z,6.87
2019-05-16T14:54:09.436Z,6.83
2019-05-16T14:56:40.784Z,8.08
2019-05-16T14:59:11.310Z,9.15
2019-05-16T15:01:41.823Z,7.78
2019-05-16T15:04:15.315Z,7.33
2019-05-16T15:06:48.082Z,9.58
2019-05-16T15:09:18.851Z,9.63
2019-05-16T15:11:49.481Z,9.45
2019-05-16T15:14:20.128Z,8.83
2019-05-16T15:16:51.999Z,8.53
2019-05-16T15:19:22.726Z,9.55
2019-05-16T15:21:53.155Z,8.98
2019-05-16T15:24:23.775Z,8.58
2019-05-16T15:27:00.899Z,8.50
2019-05-16T15:29:27.043Z,8.80
2019-05-16T15:31:57.566Z,7.97
2019-05-16T15:34:30.295Z,8.38
2019-05-16T15:37:00.233Z,9.15
2019-05-16T15:39:30.679Z,10.25
2019-05-16T15:42:01.094Z,13.55
2019-05-16T15:44:31.514Z,11.68
2019-05-16T15:47:01.969Z,10.28
2019-05-16T15:49:32.384Z,11.53
2019-05-16T15:52:02.927Z,9.63
2019-05-16T15:54:33.481Z,12.40
2019-05-16T15:57:03.921Z,9.63
2019-05-16T15:59:34.332Z,9.50
2019-05-16T16:02:07.107Z,9.58
2019-05-16T16:04:37.441Z,11.20
2019-05-16T16:07:08.101Z,11.35
2019-05-16T16:09:38.518Z,13.28
2019-05-16T16:12:10.976Z,12.80
2019-05-16T16:14:41.471Z,13.38
2019-05-16T16:17:11.863Z,12.98
2019-05-16T16:19:43.337Z,13.43
2019-05-16T16:22:13.722Z,12.43
2019-05-16T16:24:44.139Z,12.65
2019-05-16T16:27:16.884Z,12.33
2019-05-16T16:29:48.082Z,12.28
2019-05-16T16:32:18.638Z,14.35
2019-05-16T16:34:49.213Z,12.28
2019-05-16T16:37:19.636Z,12.07
2019-05-16T16:39:50.124Z,12.63
2019-05-16T16:42:20.603Z,11.10
2019-05-16T16:44:51.083Z,10.60
2019-05-16T16:47:22.930Z,12.80
2019-05-16T16:49:53.438Z,13.13
2019-05-16T16:52:23.884Z,12.18
2019-05-16T16:54:56.686Z,12.50
2019-05-16T16:57:27.063Z,13.50
2019-05-16T16:59:57.635Z,13.28
2019-05-16T17:02:28.055Z,12.93
2019-05-16T17:05:01.526Z,18.15
2019-05-16T17:07:30.715Z,13.13
2019-05-16T17:10:01.149Z,14.98
2019-05-16T17:12:31.575Z,14.95
2019-05-16T17:15:02.029Z,16.37
2019-05-16T17:17:32.452Z,13.75
2019-05-16T17:20:02.873Z,15.88
2019-05-16T17:22:33.326Z,14.90
2019-05-16T17:25:07.118Z,13.72
2019-05-16T17:27:37.783Z,14.65
2019-05-16T17:30:17.144Z,16.85
2019-05-16T17:32:49.165Z,13.38
2019-05-16T17:35:26.730Z,15.95
2019-05-16T17:37:57.308Z,14.38
2019-05-16T17:40:27.826Z,15.30
2019-05-16T17:42:58.197Z,16.00
2019-05-16T17:45:28.944Z,12.18
2019-05-16T17:47:59.422Z,13.32
2019-05-16T17:50:29.799Z,13.20
2019-05-16T17:53:00.233Z,12.90
2019-05-16T17:55:30.615Z,11.18
2019-05-16T17:58:01.027Z,11.95
2019-05-16T18:00:31.469Z,12.80
2019-05-16T18:03:02.671Z,11.35
2019-05-16T18:05:33.137Z,12.93
2019-05-16T18:08:03.523Z,13.15
2019-05-16T18:10:36.318Z,13.80
2019-05-16T18:13:07.998Z,13.83
2019-05-16T18:15:38.503Z,15.72
2019-05-16T18:18:08.900Z,13.88
2019-05-16T18:20:39.466Z,15.25
2019-05-16T18:23:09.868Z,20.23
2019-05-16T18:25:40.232Z,18.62
2019-05-16T18:28:11.467Z,16.07
2019-05-16T18:30:41.867Z,16.75
2019-05-16T18:33:12.345Z,15.50
2019-05-16T18:35:42.728Z,18.87
2019-05-16T18:38:14.649Z,17.95
2019-05-16T18:40:47.247Z,16.67
2019-05-16T18:43:17.144Z,16.93
2019-05-16T18:45:47.639Z,17.73
2019-05-16T18:48:18.050Z,18.57
2019-05-16T18:50:48.534Z,18.42
2019-05-16T18:53:18.951Z,18.15
2019-05-16T18:55:50.935Z,16.40
2019-05-16T18:58:22.805Z,16.37
2019-05-16T19:00:53.314Z,16.77
2019-05-16T19:03:23.701Z,17.05
2019-05-16T19:05:54.151Z,16.60
2019-05-16T19:08:26.880Z,17.30
2019-05-16T19:11:00.039Z,16.40
2019-05-16T19:13:29.677Z,17.92
2019-05-16T19:16:00.129Z,17.10
2019-05-16T19:18:30.520Z,18.25
2019-05-16T19:21:00.982Z,17.62
2019-05-16T19:23:31.370Z,18.30
2019-05-16T19:26:01.794Z,19.35
2019-05-16T19:28:32.235Z,19.30
2019-05-16T19:31:02.649Z,18.73
2019-05-16T19:33:34.552Z,20.02
2019-05-16T19:36:07.280Z,18.35
2019-05-16T19:38:37.910Z,18.48
2019-05-16T19:41:08.367Z,19.12
2019-05-16T19:43:38.800Z,17.95
2019-05-16T19:46:09.191Z,18.07
2019-05-16T19:48:39.680Z,18.95
2019-05-16T19:51:12.531Z,17.85
2019-05-16T19:53:42.928Z,19.57
2019-05-16T19:56:14.764Z,19.10
2019-05-16T19:58:46.761Z,19.12
2019-05-16T20:01:17.252Z,20.92
2019-05-16T20:03:47.711Z,20.60
2019-05-16T20:06:18.178Z,21.93
2019-05-16T20:08:48.614Z,22.07
2019-05-16T20:11:19.008Z,23.12
2019-05-16T20:13:49.456Z,22.35
2019-05-16T20:16:19.917Z,23.83
2019-05-16T20:18:52.831Z,21.27
2019-05-16T20:21:27.357Z,22.62
2019-05-16T20:23:56.909Z,22.40
2019-05-16T20:26:27.427Z,23.40
2019-05-16T20:28:59.491Z,22.45
2019-05-16T20:31:30.072Z,21.65
2019-05-16T20:34:00.538Z,22.22
2019-05-16T20:36:32.474Z,21.97
2019-05-16T20:39:03.121Z,23.02
2019-05-16T20:41:36.747Z,23.77
2019-05-16T20:44:07.413Z,23.32
2019-05-16T20:46:37.826Z,22.93
2019-05-16T20:49:08.198Z,21.73
2019-05-16T20:51:39.442Z,20.72
2019-05-16T20:54:09.814Z,22.98
2019-05-16T20:56:40.238Z,20.88
2019-05-16T20:59:10.622Z,20.77
2019-05-16T21:01:41.206Z,20.57
2019-05-16T21:04:11.584Z,21.40
2019-05-16T21:06:56.798Z,21.77
2019-05-16T21:09:14.111Z,21.82
2019-05-16T21:11:46.822Z,22.98
2019-05-16T21:14:16.599Z,21.95
2019-05-16T21:16:49.486Z,21.90
2019-05-16T21:19:19.101Z,22.80
2019-05-16T21:21:49.577Z,23.20
2019-05-16T21:24:22.165Z,21.90
2019-05-16T21:26:52.926Z,22.37
2019-05-16T21:29:23.301Z,23.42
2019-05-16T21:31:53.708Z,23.85
2019-05-16T21:34:27.226Z,25.23
2019-05-16T21:37:11.016Z,22.80
2019-05-16T21:39:29.966Z,25.37
2019-05-16T21:42:00.328Z,23.57
2019-05-16T21:44:32.244Z,24.43
2019-05-16T21:47:02.684Z,25.75
2019-05-16T21:49:36.606Z,23.50
2019-05-16T21:52:07.461Z,22.98
2019-05-16T21:54:37.861Z,23.00
2019-05-16T21:57:08.251Z,22.10
2019-05-16T21:59:38.678Z,22.42
2019-05-16T22:02:09.058Z,21.70
2019-05-16T22:04:39.459Z,21.65
2019-05-16T22:07:10.029Z,23.47
2019-05-16T22:09:40.438Z,22.10
2019-05-16T22:12:10.830Z,23.67
2019-05-16T22:14:46.639Z,22.90
2019-05-16T22:17:16.948Z,22.50
2019-05-16T22:19:47.642Z,22.15
2019-05-16T22:22:18.084Z,23.67
2019-05-16T22:24:49.317Z,24.80
2019-05-16T22:27:19.942Z,23.42
2019-05-16T22:29:50.510Z,23.73
2019-05-16T22:32:21.087Z,25.10
2019-05-16T22:34:51.551Z,23.80
2019-05-16T22:37:21.955Z,24.52
2019-05-16T22:39:52.370Z,22.93
2019-05-16T22:42:22.852Z,23.60
2019-05-16T22:44:53.216Z,25.50
2019-05-16T22:47:23.636Z,23.62
2019-05-16T22:49:56.590Z,28.32
2019-05-16T22:52:26.573Z,25.48
2019-05-16T22:54:57.074Z,26.17
2019-05-16T22:57:27.502Z,27.13
2019-05-16T22:59:57.872Z,26.62
2019-05-16T23:02:29.873Z,26.97
2019-05-16T23:05:00.278Z,27.45
2019-05-16T23:07:30.671Z,28.10
2019-05-16T23:10:02.577Z,28.25
2019-05-16T23:12:32.953Z,27.17
2019-05-16T23:15:03.769Z,28.60
2019-05-16T23:17:34.150Z,31.12
2019-05-16T23:20:06.337Z,30.82
2019-05-16T23:22:36.980Z,31.07
2019-05-16T23:25:07.375Z,31.95
2019-05-16T23:27:37.847Z,33.05
2019-05-16T23:30:09.521Z,34.20
2019-05-16T23:32:39.956Z,34.85
2019-05-16T23:35:10.535Z,35.52
2019-05-16T23:37:42.412Z,35.65
2019-05-16T23:40:14.309Z,35.63
2019-05-16T23:42:46.461Z,36.20
2019-05-16T23:45:17.359Z,35.58
2019-05-16T23:47:47.841Z,37.58
2019-05-16T23:50:18.245Z,38.90
2019-05-16T23:52:50.184Z,37.85
2019-05-16T23:55:20.641Z,37.75
2019-05-16T23:57:51.045Z,36.70
